createdAt,value
2022-08-07T00:02:36.291Z,101447.66
2022-08-07T00:04:16.263Z,101450.16
2022-08-07T00:06:18.560Z,101445.94
2022-08-07T00:08:32.751Z,101448.31
2022-08-07T00:10:48.124Z,101448.44
2022-08-07T00:13:09.616Z,101443.88
2022-08-07T00:15:25.946Z,101442.88
2022-08-07T00:17:40.633Z,101444.38
2022-08-07T00:20:01.390Z,101442.50
2022-08-07T00:22:05.983Z,101449.94
2022-08-07T00:24:08.453Z,101446.56
2022-08-07T00:26:13.175Z,101450.78
2022-08-07T00:28:23.937Z,101453.47
2022-08-07T00:30:35.176Z,101458.03
2022-08-07T00:32:38.400Z,101452.31
2022-08-07T00:34:41.762Z,101455.03
2022-08-07T00:36:44.128Z,101452.13
2022-08-07T00:38:46.025Z,101451.75
2022-08-07T00:40:48.114Z,101460.81
2022-08-07T00:42:50.254Z,101456.91
2022-08-07T00:44:52.312Z,101455.34
2022-08-07T00:46:54.703Z,101457.84
2022-08-07T00:49:02.213Z,101459.50
2022-08-07T00:51:05.423Z,101464.09
2022-08-07T00:53:09.239Z,101462.41
2022-08-07T00:55:12.908Z,101461.19
2022-08-07T00:57:19.588Z,101468.25
2022-08-07T00:59:35.426Z,101456.81
2022-08-07T01:01:48.777Z,101464.38
2022-08-07T01:03:57.092Z,101457.91
2022-08-07T01:06:04.273Z,101467.34
2022-08-07T01:08:06.286Z,101466.44
2022-08-07T01:10:12.621Z,101471.97
2022-08-07T01:12:29.618Z,101473.44
2022-08-07T01:14:32.538Z,101470.44
2022-08-07T01:16:43.138Z,101476.84
2022-08-07T01:18:48.744Z,101463.75
2022-08-07T01:21:22.492Z,101465.34
2022-08-07T01:23:38.024Z,101467.22
2022-08-07T01:25:55.366Z,101463.06
2022-08-07T01:28:00.201Z,101458.84
2022-08-07T01:30:04.929Z,101467.84
2022-08-07T01:32:12.518Z,101464.47
2022-08-07T01:34:18.766Z,101461.47
2022-08-07T01:36:21.189Z,101455.69
2022-08-07T01:38:35.737Z,101457.94
2022-08-07T01:40:40.768Z,101459.78
2022-08-07T01:42:57.582Z,101462.88
2022-08-07T01:45:01.185Z,101465.78
2022-08-07T01:48:18.071Z,101471.91
2022-08-07T01:49:25.349Z,101469.81
2022-08-07T01:52:01.760Z,101466.50
2022-08-07T01:54:09.206Z,101465.72
2022-08-07T01:56:22.717Z,101468.34
2022-08-07T01:58:40.993Z,101470.31
2022-08-07T02:00:57.940Z,101465.41
2022-08-07T02:03:21.865Z,101464.22
2022-08-07T02:05:47.838Z,101465.13
2022-08-07T02:07:52.721Z,101469.44
2022-08-07T02:09:58.522Z,101463.38
2022-08-07T02:12:17.598Z,101467.38
2022-08-07T02:14:35.847Z,101460.75
2022-08-07T02:16:45.704Z,101464.34
2022-08-07T02:18:51.202Z,101467.28
2022-08-07T02:20:55.772Z,101462.19
2022-08-07T02:23:02.928Z,101459.41
2022-08-07T02:25:13.808Z,101456.31
2022-08-07T02:27:22.833Z,101462.91
2022-08-07T02:29:26.443Z,101456.19
2022-08-07T02:31:32.779Z,101460.19
2022-08-07T02:33:57.264Z,101462.16
2022-08-07T02:36:29.287Z,101458.19
2022-08-07T02:38:31.530Z,101460.28
2022-08-07T02:40:35.567Z,101467.97
2022-08-07T02:42:38.961Z,101467.09
2022-08-07T02:44:48.042Z,101470.03
2022-08-07T02:46:54.059Z,101468.88
2022-08-07T02:48:56.579Z,101465.97
2022-08-07T02:51:05.271Z,101469.34
2022-08-07T02:53:13.534Z,101470.22
2022-08-07T02:55:28.809Z,101470.50
2022-08-07T02:57:48.039Z,101467.81
2022-08-07T02:59:54.741Z,101466.72
2022-08-07T03:02:02.147Z,101464.03
2022-08-07T03:04:12.374Z,101468.53
2022-08-07T03:06:25.541Z,101475.47
2022-08-07T03:08:29.328Z,101474.78
2022-08-07T03:10:32.884Z,101477.03
2022-08-07T03:12:35.537Z,101475.75
2022-08-07T03:14:42.560Z,101475.91
2022-08-07T03:16:52.707Z,101480.53
2022-08-07T03:18:55.061Z,101478.56
2022-08-07T03:20:58.413Z,101477.56
2022-08-07T03:23:01.421Z,101480.25
2022-08-07T03:25:04.033Z,101476.84
2022-08-07T03:27:13.582Z,101476.41
2022-08-07T03:29:44.582Z,101475.56
2022-08-07T03:31:52.449Z,101476.84
2022-08-07T03:34:01.362Z,101473.28
2022-08-07T03:36:03.518Z,101471.91
2022-08-07T03:38:13.281Z,101478.75
2022-08-07T03:40:16.929Z,101476.59
2022-08-07T03:42:20.200Z,101478.22
2022-08-07T03:44:31.915Z,101476.34
2022-08-07T03:47:10.716Z,101479.06
2022-08-07T03:49:03.484Z,101475.97
2022-08-07T03:51:06.560Z,101483.06
2022-08-07T03:53:13.994Z,101479.38
2022-08-07T03:55:17.794Z,101479.06
2022-08-07T03:58:35.204Z,101483.03
2022-08-07T04:00:01.535Z,101483.38
2022-08-07T04:02:06.108Z,101485.47
2022-08-07T04:04:11.765Z,101480.19
2022-08-07T04:06:36.378Z,101483.28
2022-08-07T04:08:41.968Z,101480.25
2022-08-07T04:10:54.116Z,101485.56
2022-08-07T04:13:15.050Z,101490.16
2022-08-07T04:15:18.503Z,101491.38
2022-08-07T04:17:21.883Z,101496.84
2022-08-07T04:19:50.837Z,101500.03
2022-08-07T04:22:05.417Z,101501.44
2022-08-07T04:24:30.665Z,101499.59
2022-08-07T04:26:35.106Z,101487.13
2022-08-07T04:28:37.188Z,101493.81
2022-08-07T04:30:55.175Z,101492.50
2022-08-07T04:32:59.377Z,101500.75
2022-08-07T04:35:05.385Z,101501.59
2022-08-07T04:37:15.239Z,101507.97
2022-08-07T04:39:25.957Z,101504.91
2022-08-07T04:41:28.755Z,101505.06
2022-08-07T04:44:10.626Z,101497.63
2022-08-07T04:46:20.343Z,101502.84
2022-08-07T04:49:01.586Z,101502.72
2022-08-07T04:51:15.663Z,101506.81
2022-08-07T04:54:05.563Z,101500.28
2022-08-07T04:58:13.691Z,101507.56
2022-08-07T05:00:07.849Z,101509.72
2022-08-07T05:01:50.627Z,101515.53
2022-08-07T05:04:19.421Z,101508.81
2022-08-07T05:06:43.755Z,101517.81
2022-08-07T05:09:08.645Z,101519.88
2022-08-07T05:11:26.160Z,101524.91
2022-08-07T05:14:55.033Z,101530.91
2022-08-07T05:16:04.514Z,101530.16
2022-08-07T05:18:20.429Z,101523.91
2022-08-07T05:20:33.965Z,101535.41
2022-08-07T05:22:40.206Z,101540.88
2022-08-07T05:24:44.049Z,101531.94
2022-08-07T05:26:49.795Z,101536.97
2022-08-07T05:29:04.231Z,101545.38
2022-08-07T05:31:14.523Z,101543.44
2022-08-07T05:33:21.300Z,101539.44
2022-08-07T05:35:33.518Z,101539.28
2022-08-07T05:37:40.838Z,101544.09
2022-08-07T05:40:14.301Z,101531.94
2022-08-07T05:42:34.261Z,101536.38
2022-08-07T05:44:41.686Z,101545.69
2022-08-07T05:46:57.727Z,101540.03
2022-08-07T05:49:11.723Z,101534.34
2022-08-07T05:51:15.993Z,101533.75
2022-08-07T05:54:09.609Z,101537.47
2022-08-07T05:56:03.272Z,101537.88
2022-08-07T05:58:10.089Z,101533.25
2022-08-07T06:00:16.291Z,101538.28
2022-08-07T06:02:28.623Z,101548.81
2022-08-07T06:04:37.620Z,101534.97
2022-08-07T06:06:46.116Z,101536.06
2022-08-07T06:08:51.614Z,101534.78
2022-08-07T06:11:00.215Z,101537.06
2022-08-07T06:13:06.055Z,101535.19
2022-08-07T06:15:19.914Z,101535.19
2022-08-07T06:17:23.295Z,101533.06
2022-08-07T06:19:57.496Z,101534.88
2022-08-07T06:22:14.339Z,101532.22
2022-08-07T06:24:52.338Z,101534.69
2022-08-07T06:26:47.275Z,101537.47
2022-08-07T06:29:01.009Z,101535.09
2022-08-07T06:31:04.236Z,101533.63
2022-08-07T06:33:15.669Z,101531.88
2022-08-07T06:35:18.677Z,101545.53
2022-08-07T06:37:25.595Z,101540.84
2022-08-07T06:40:16.243Z,101540.81
2022-08-07T06:42:34.768Z,101542.50
2022-08-07T06:44:39.806Z,101542.75
2022-08-07T06:46:53.497Z,101539.66
2022-08-07T06:49:12.409Z,101542.47
2022-08-07T06:51:31.408Z,101549.25
2022-08-07T06:55:28.412Z,101548.59
2022-08-07T06:56:15.920Z,101550.00
2022-08-07T06:58:27.572Z,101549.69
2022-08-07T07:00:42.478Z,101548.41
2022-08-07T07:02:54.106Z,101555.38
2022-08-07T07:04:59.839Z,101552.78
2022-08-07T07:07:18.801Z,101560.53
2022-08-07T07:09:31.665Z,101553.13
2022-08-07T07:12:08.389Z,101550.75
2022-08-07T07:14:01.515Z,101545.50
2022-08-07T07:16:10.188Z,101544.38
2022-08-07T07:18:33.102Z,101549.16
2022-08-07T07:20:52.004Z,101547.56
2022-08-07T07:24:11.295Z,101543.63
2022-08-07T07:26:33.289Z,101540.53
2022-08-07T07:27:56.280Z,101535.44
2022-08-07T07:30:09.956Z,101538.31
2022-08-07T07:32:17.051Z,101530.66
2022-08-07T07:34:30.542Z,101535.28
2022-08-07T07:36:34.766Z,101542.16
2022-08-07T07:38:46.274Z,101534.66
2022-08-07T07:40:52.171Z,101536.06
2022-08-07T07:43:02.333Z,101536.94
2022-08-07T07:45:24.543Z,101540.88
2022-08-07T07:47:52.451Z,101539.44
2022-08-07T07:50:33.336Z,101537.34
2022-08-07T07:52:25.817Z,101534.28
2022-08-07T07:54:29.392Z,101530.47
2022-08-07T07:56:33.692Z,101534.94
2022-08-07T07:58:40.854Z,101546.94
2022-08-07T08:00:52.130Z,101539.22
2022-08-07T08:03:04.869Z,101537.91
2022-08-07T08:05:11.557Z,101545.94
2022-08-07T08:07:24.556Z,101531.50
2022-08-07T08:09:52.233Z,101533.50
2022-08-07T08:12:06.047Z,101533.78
2022-08-07T08:14:14.268Z,101524.41
2022-08-07T08:16:24.949Z,101524.72
2022-08-07T08:18:28.265Z,101531.94
2022-08-07T08:20:34.787Z,101536.03
2022-08-07T08:23:00.565Z,101530.66
2022-08-07T08:25:42.748Z,101529.31
2022-08-07T08:27:56.530Z,101528.66
2022-08-07T08:30:11.392Z,101526.88
2022-08-07T08:32:25.394Z,101521.94
2022-08-07T08:34:46.320Z,101526.97
2022-08-07T08:36:57.640Z,101522.88
2022-08-07T08:39:04.310Z,101527.66
2022-08-07T08:41:58.546Z,101526.69
2022-08-07T08:44:45.975Z,101522.09
2022-08-07T08:47:05.528Z,101531.88
2022-08-07T08:49:32.965Z,101538.31
2022-08-07T08:52:36.282Z,101530.84
2022-08-07T08:54:53.794Z,101537.84
2022-08-07T08:57:00.417Z,101539.22
2022-08-07T08:59:19.159Z,101530.72
2022-08-07T09:01:44.222Z,101534.13
2022-08-07T09:04:08.983Z,101525.19
2022-08-07T09:06:59.804Z,101533.53
2022-08-07T09:09:29.890Z,101531.06
2022-08-07T09:11:54.174Z,101529.16
2022-08-07T09:14:09.810Z,101508.47
2022-08-07T09:16:29.890Z,101512.88
2022-08-07T09:19:52.283Z,101526.38
2022-08-07T09:24:27.454Z,101525.56
2022-08-07T09:25:18.915Z,101525.69
2022-08-07T09:28:06.314Z,101512.13
2022-08-07T09:30:54.295Z,101513.75
2022-08-07T09:33:52.770Z,101519.41
2022-08-07T09:36:13.478Z,101518.94
2022-08-07T09:38:36.936Z,101509.28
2022-08-07T09:40:48.075Z,101506.25
2022-08-07T09:43:08.456Z,101505.66
2022-08-07T09:47:25.812Z,101507.19
2022-08-07T09:48:02.976Z,101498.31
2022-08-07T09:50:23.040Z,101500.28
2022-08-07T09:52:44.418Z,101493.34
2022-08-07T09:55:01.732Z,101487.53
2022-08-07T09:57:56.297Z,101487.63
2022-08-07T10:00:06.409Z,101487.22
2022-08-07T10:02:35.225Z,101479.66
2022-08-07T10:04:52.979Z,101487.41
2022-08-07T10:07:01.121Z,101485.41
2022-08-07T10:09:42.904Z,101481.69
2022-08-07T10:12:21.475Z,101481.25
2022-08-07T10:14:30.359Z,101470.53
2022-08-07T10:16:49.280Z,101478.56
2022-08-07T10:19:11.674Z,101469.44
2022-08-07T10:22:13.991Z,101471.00
2022-08-07T10:24:24.054Z,101471.47
2022-08-07T10:26:36.233Z,101466.94
2022-08-07T10:28:50.307Z,101469.00
2022-08-07T10:31:17.965Z,101472.41
2022-08-07T10:34:05.601Z,101471.16
2022-08-07T10:36:18.065Z,101470.63
2022-08-07T10:38:51.059Z,101467.47
2022-08-07T10:41:52.368Z,101467.31
2022-08-07T10:44:07.532Z,101470.00
2022-08-07T10:46:18.313Z,101473.63
2022-08-07T10:48:48.955Z,101465.06
2022-08-07T10:51:39.397Z,101463.22
2022-08-07T10:54:00.193Z,101454.13
2022-08-07T10:56:30.933Z,101457.66
2022-08-07T10:59:06.984Z,101447.50
2022-08-07T11:01:22.334Z,101448.56
2022-08-07T11:03:52.621Z,101450.19
2022-08-07T11:06:18.184Z,101445.00
2022-08-07T11:08:49.221Z,101448.50
2022-08-07T11:11:14.401Z,101440.31
2022-08-07T11:14:42.126Z,101440.13
2022-08-07T11:16:07.212Z,101445.88
2022-08-07T11:18:12.527Z,101452.09
2022-08-07T11:20:24.629Z,101447.09
2022-08-07T11:23:20.590Z,101448.53
2022-08-07T11:26:06.520Z,101446.16
2022-08-07T11:28:15.382Z,101438.19
2022-08-07T11:30:41.500Z,101433.22
2022-08-07T11:32:58.968Z,101433.72
2022-08-07T11:35:10.973Z,101430.44
2022-08-07T11:40:51.979Z,101428.25
2022-08-07T11:43:54.623Z,101435.66
2022-08-07T11:46:07.114Z,101425.53
2022-08-07T11:48:29.787Z,101429.84
2022-08-07T11:51:41.551Z,101421.56
2022-08-07T11:54:11.935Z,101410.41
2022-08-07T11:56:28.245Z,101408.16
2022-08-07T11:58:59.989Z,101411.41
2022-08-07T12:01:20.185Z,101412.19
2022-08-07T12:04:09.633Z,101406.06
2022-08-07T12:06:37.864Z,101405.69
2022-08-07T12:08:58.618Z,101405.91
2022-08-07T12:11:24.027Z,101404.84
2022-08-07T12:13:51.110Z,101405.91
2022-08-07T12:16:06.733Z,101396.72
2022-08-07T12:18:32.669Z,101398.34
2022-08-07T12:20:52.320Z,101405.28
2022-08-07T12:23:21.430Z,101404.84
2022-08-07T12:26:05.323Z,101405.88
2022-08-07T12:28:31.135Z,101398.69
2022-08-07T12:30:39.258Z,101394.25
2022-08-07T12:32:58.554Z,101397.88
2022-08-07T12:35:05.730Z,101397.31
2022-08-07T12:37:16.887Z,101395.09
2022-08-07T12:39:44.108Z,101392.94
2022-08-07T12:41:58.592Z,101391.44
2022-08-07T12:44:06.379Z,101393.13
2022-08-07T12:46:15.909Z,101395.88
2022-08-07T12:48:51.796Z,101389.94
2022-08-07T12:51:17.154Z,101380.31
2022-08-07T12:54:03.069Z,101382.03
2022-08-07T12:56:04.303Z,101377.47
2022-08-07T12:58:16.063Z,101379.63
2022-08-07T13:00:32.651Z,101387.16
2022-08-07T13:03:07.894Z,101375.41
2022-08-07T13:06:04.603Z,101375.03
2022-08-07T13:08:22.130Z,101369.13
2022-08-07T13:10:39.857Z,101367.34
2022-08-07T13:12:56.123Z,101372.16
2022-08-07T13:15:23.791Z,101365.31
2022-08-07T13:17:52.639Z,101370.78
2022-08-07T13:20:09.885Z,101370.19
2022-08-07T13:22:34.421Z,101358.78
2022-08-07T13:24:54.975Z,101363.53
2022-08-07T13:28:05.896Z,101360.88
2022-08-07T13:30:19.686Z,101361.03
2022-08-07T13:34:29.875Z,101359.81
2022-08-07T13:35:59.516Z,101349.69
2022-08-07T13:38:11.319Z,101347.25
2022-08-07T13:41:05.664Z,101353.53
2022-08-07T13:43:18.042Z,101350.81
2022-08-07T13:46:11.145Z,101338.16
2022-08-07T13:48:08.461Z,101336.19
2022-08-07T13:50:34.721Z,101327.97
2022-08-07T13:52:43.156Z,101327.94
2022-08-07T13:54:51.886Z,101329.63
2022-08-07T13:56:59.803Z,101332.63
2022-08-07T13:59:05.374Z,101334.31
2022-08-07T14:01:15.807Z,101330.16
2022-08-07T14:03:29.218Z,101332.13
2022-08-07T14:05:55.169Z,101327.22
2022-08-07T14:08:01.567Z,101326.34
2022-08-07T14:10:16.311Z,101326.63
2022-08-07T14:12:31.231Z,101323.16
2022-08-07T14:14:56.343Z,101319.66
2022-08-07T14:17:13.127Z,101312.31
2022-08-07T14:20:41.712Z,101314.97
2022-08-07T14:22:34.594Z,101307.91
2022-08-07T14:24:41.274Z,101308.63
2022-08-07T14:28:09.150Z,101302.06
2022-08-07T14:30:04.760Z,101299.56
2022-08-07T14:32:01.852Z,101301.63
2022-08-07T14:34:10.100Z,101303.41
2022-08-07T14:36:21.294Z,101290.44
2022-08-07T14:38:31.389Z,101294.47
2022-08-07T14:40:36.574Z,101289.06
2022-08-07T14:43:55.621Z,101288.41
2022-08-07T14:47:35.037Z,101285.03
2022-08-07T14:49:57.212Z,101286.25
2022-08-07T14:52:10.633Z,101288.31
2022-08-07T14:54:34.785Z,101280.63
2022-08-07T14:56:47.164Z,101274.34
2022-08-07T15:01:22.560Z,101272.31
2022-08-07T15:03:51.696Z,101276.97
2022-08-07T15:05:55.155Z,101278.72
2022-08-07T15:08:12.721Z,101277.63
2022-08-07T15:12:46.247Z,101274.69
2022-08-07T15:15:21.040Z,101272.28
2022-08-07T15:17:54.586Z,101276.97
2022-08-07T15:20:33.238Z,101269.16
2022-08-07T15:22:33.477Z,101267.72
2022-08-07T15:25:14.834Z,101267.19
2022-08-07T15:27:11.834Z,101264.59
2022-08-07T15:30:06.884Z,101255.78
2022-08-07T15:31:57.961Z,101257.44
2022-08-07T15:34:05.247Z,101251.88
2022-08-07T15:36:15.362Z,101262.06
2022-08-07T15:38:51.433Z,101256.00
2022-08-07T15:41:23.512Z,101251.44
2022-08-07T15:45:56.447Z,101250.19
2022-08-07T15:48:25.643Z,101246.59
2022-08-07T15:50:37.944Z,101242.50
2022-08-07T15:53:11.844Z,101243.81
2022-08-07T15:55:20.228Z,101252.84
2022-08-07T15:57:47.927Z,101247.56
2022-08-07T15:59:51.489Z,101247.69
2022-08-07T16:02:02.812Z,101245.34
2022-08-07T16:04:15.464Z,101235.53
2022-08-07T16:06:28.357Z,101243.44
2022-08-07T16:08:38.502Z,101244.66
2022-08-07T16:10:47.226Z,101240.38
2022-08-07T16:13:17.338Z,101235.16
2022-08-07T16:15:57.979Z,101237.88
2022-08-07T16:18:49.390Z,101234.94
2022-08-07T16:22:02.446Z,101235.81
2022-08-07T16:23:53.496Z,101231.38
2022-08-07T16:26:10.031Z,101235.59
2022-08-07T16:30:09.209Z,101231.84
2022-08-07T16:31:09.927Z,101239.41
2022-08-07T16:34:03.054Z,101227.34
2022-08-07T16:36:31.311Z,101235.72
2022-08-07T16:39:01.100Z,101242.66
2022-08-07T16:41:41.539Z,101228.16
2022-08-07T16:44:40.523Z,101237.81
2022-08-07T16:47:05.834Z,101238.72
2022-08-07T16:50:20.623Z,101237.91
2022-08-07T16:52:55.845Z,101230.56
2022-08-07T16:55:47.031Z,101241.09
2022-08-07T16:58:04.056Z,101232.66
2022-08-07T17:00:06.936Z,101236.06
2022-08-07T17:02:53.191Z,101242.13
2022-08-07T17:04:58.449Z,101244.50
2022-08-07T17:07:28.475Z,101233.88
2022-08-07T17:10:06.384Z,101235.72
2022-08-07T17:12:33.854Z,101242.03
2022-08-07T17:14:53.737Z,101246.22
2022-08-07T17:17:14.693Z,101248.31
2022-08-07T17:20:00.963Z,101249.81
2022-08-07T17:21:52.293Z,101254.91
2022-08-07T17:24:17.933Z,101245.50
2022-08-07T17:26:48.189Z,101261.00
2022-08-07T17:28:55.761Z,101254.75
2022-08-07T17:31:16.909Z,101256.66
2022-08-07T17:34:10.194Z,101249.38
2022-08-07T17:35:55.938Z,101255.63
2022-08-07T17:38:22.144Z,101253.31
2022-08-07T17:41:12.325Z,101257.28
2022-08-07T17:44:01.481Z,101262.91
2022-08-07T17:46:07.774Z,101266.28
2022-08-07T17:48:32.632Z,101262.69
2022-08-07T17:50:47.137Z,101270.63
2022-08-07T17:53:01.347Z,101271.63
2022-08-07T17:55:54.919Z,101272.09
2022-08-07T17:58:02.039Z,101275.84
2022-08-07T18:00:32.905Z,101272.78
2022-08-07T18:02:56.828Z,101279.88
2022-08-07T18:05:20.971Z,101271.75
2022-08-07T18:07:24.445Z,101269.34
2022-08-07T18:10:04.354Z,101276.38
2022-08-07T18:12:16.709Z,101276.47
2022-08-07T18:14:31.150Z,101281.69
2022-08-07T18:16:36.805Z,101275.03
2022-08-07T18:21:06.352Z,101284.97
2022-08-07T18:22:11.081Z,101282.25
2022-08-07T18:24:51.310Z,101285.06
2022-08-07T18:27:25.357Z,101284.06
2022-08-07T18:30:07.142Z,101293.06
2022-08-07T18:32:41.650Z,101295.78
2022-08-07T18:35:09.572Z,101294.31
2022-08-07T18:38:55.111Z,101291.56
2022-08-07T18:40:06.590Z,101296.44
2022-08-07T18:42:21.958Z,101303.59
2022-08-07T18:45:39.816Z,101302.97
2022-08-07T18:47:22.664Z,101296.59
2022-08-07T18:50:29.986Z,101313.47
2022-08-07T18:53:05.762Z,101308.53
2022-08-07T18:55:42.985Z,101304.09
2022-08-07T18:58:00.493Z,101308.06
2022-08-07T19:00:32.612Z,101310.53
2022-08-07T19:02:42.482Z,101312.75
2022-08-07T19:05:10.134Z,101314.69
2022-08-07T19:07:35.014Z,101315.66
2022-08-07T19:10:05.014Z,101322.13
2022-08-07T19:12:48.946Z,101319.03
2022-08-07T19:16:04.410Z,101323.22
2022-08-07T19:18:11.397Z,101322.94
2022-08-07T19:20:29.357Z,101317.41
2022-08-07T19:22:52.772Z,101315.00
2022-08-07T19:24:57.130Z,101316.81
2022-08-07T19:28:29.801Z,101319.34
2022-08-07T19:30:58.293Z,101321.53
2022-08-07T19:32:07.918Z,101322.41
2022-08-07T19:34:32.724Z,101320.09
2022-08-07T19:36:51.960Z,101325.56
2022-08-07T19:38:59.664Z,101315.09
2022-08-07T19:41:03.294Z,101318.28
2022-08-07T19:43:21.524Z,101320.97
2022-08-07T19:46:08.216Z,101320.84
2022-08-07T19:47:55.943Z,101325.94
2022-08-07T19:50:03.153Z,101326.03
2022-08-07T19:52:28.221Z,101331.81
2022-08-07T19:54:55.915Z,101334.97
2022-08-07T19:57:51.208Z,101331.22
2022-08-07T19:59:37.960Z,101332.75
2022-08-07T20:01:56.066Z,101333.28
2022-08-07T20:04:01.938Z,101334.66
2022-08-07T20:06:15.265Z,101335.72
2022-08-07T20:08:25.225Z,101327.47
2022-08-07T20:10:36.676Z,101330.84
2022-08-07T20:12:55.765Z,101335.22
2022-08-07T20:15:02.838Z,101339.13
2022-08-07T20:17:10.185Z,101340.63
2022-08-07T20:19:21.097Z,101336.78
2022-08-07T20:21:25.681Z,101336.28
2022-08-07T20:23:51.946Z,101329.34
2022-08-07T20:26:05.006Z,101338.13
2022-08-07T20:28:17.339Z,101340.97
2022-08-07T20:30:37.194Z,101336.75
2022-08-07T20:32:44.995Z,101343.84
2022-08-07T20:35:08.082Z,101340.97
2022-08-07T20:37:29.564Z,101337.25
2022-08-07T20:40:02.959Z,101337.09
2022-08-07T20:42:09.318Z,101339.47
2022-08-07T20:44:19.045Z,101337.13
2022-08-07T20:46:32.262Z,101330.53
2022-08-07T20:48:39.167Z,101340.31
2022-08-07T20:51:04.368Z,101327.50
2022-08-07T20:53:16.205Z,101339.28
2022-08-07T20:55:32.244Z,101337.59
2022-08-07T20:58:03.630Z,101332.22
2022-08-07T21:00:09.536Z,101336.59
2022-08-07T21:02:54.279Z,101335.41
2022-08-07T21:05:01.435Z,101329.66
2022-08-07T21:07:14.282Z,101338.09
2022-08-07T21:09:24.502Z,101339.25
2022-08-07T21:11:40.215Z,101336.41
2022-08-07T21:14:32.883Z,101340.59
2022-08-07T21:17:06.645Z,101336.41
2022-08-07T21:19:13.951Z,101338.09
2022-08-07T21:21:17.555Z,101341.44
2022-08-07T21:23:35.865Z,101340.59
2022-08-07T21:26:03.857Z,101343.06
2022-08-07T21:28:48.306Z,101343.41
2022-08-07T21:31:31.643Z,101344.56
2022-08-07T21:33:56.491Z,101345.59
2022-08-07T21:36:30.877Z,101343.88
2022-08-07T21:39:48.077Z,101340.38
2022-08-07T21:41:38.116Z,101343.66
2022-08-07T21:44:29.806Z,101346.03
2022-08-07T21:46:52.582Z,101347.22
2022-08-07T21:49:25.555Z,101351.09
2022-08-07T21:51:27.637Z,101341.16
2022-08-07T21:53:53.254Z,101343.91
2022-08-07T21:56:16.797Z,101348.28
2022-08-07T21:59:14.272Z,101345.72
2022-08-07T22:02:07.199Z,101346.81
2022-08-07T22:04:02.594Z,101347.78
2022-08-07T22:06:30.122Z,101346.91
2022-08-07T22:08:50.157Z,101342.69
2022-08-07T22:11:00.010Z,101343.19
2022-08-07T22:13:17.411Z,101354.63
2022-08-07T22:16:39.291Z,101348.72
2022-08-07T22:18:37.745Z,101348.72
2022-08-07T22:20:51.802Z,101349.94
2022-08-07T22:23:06.793Z,101351.44
2022-08-07T22:25:15.708Z,101352.41
2022-08-07T22:27:34.031Z,101350.56
2022-08-07T22:29:56.998Z,101353.13
2022-08-07T22:32:21.291Z,101354.63
2022-08-07T22:34:53.414Z,101350.53
2022-08-07T22:37:19.352Z,101352.63
2022-08-07T22:39:59.281Z,101351.22
2022-08-07T22:42:36.500Z,101354.59
2022-08-07T22:44:57.871Z,101347.47
2022-08-07T22:47:16.785Z,101350.06
2022-08-07T22:49:38.128Z,101355.34
2022-08-07T22:51:55.580Z,101356.88
2022-08-07T22:54:16.133Z,101350.28
2022-08-07T22:56:38.072Z,101356.97
2022-08-07T22:59:05.337Z,101356.09
2022-08-07T23:01:49.683Z,101360.44
2022-08-07T23:04:29.899Z,101360.81
2022-08-07T23:07:18.431Z,101361.47
2022-08-07T23:10:04.376Z,101364.28
2022-08-07T23:12:34.766Z,101367.28
2022-08-07T23:15:00.569Z,101361.59
2022-08-07T23:17:35.970Z,101361.78
2022-08-07T23:20:15.159Z,101356.75
2022-08-07T23:22:20.786Z,101360.31
2022-08-07T23:24:50.395Z,101358.63
2022-08-07T23:27:16.516Z,101364.50
2022-08-07T23:30:37.063Z,101368.75
2022-08-07T23:34:21.275Z,101366.03
2022-08-07T23:36:28.690Z,101375.34
2022-08-07T23:38:54.643Z,101371.88
2022-08-07T23:41:22.328Z,101368.88
2022-08-07T23:44:03.732Z,101376.63
2022-08-07T23:46:27.471Z,101378.38
2022-08-07T23:48:51.794Z,101373.94
2022-08-07T23:52:58.439Z,101372.63
2022-08-07T23:54:28.492Z,101380.38
2022-08-07T23:56:37.996Z,101380.16
2022-08-07T23:59:10.672Z,101378.50
